sensor_id;sensor_type;location;lat;lon;timestamp;P1;durP1;ratioP1;P2;durP2;ratioP2
57085;SDS011;42964;42.910;23.792;2023-07-29T00:01:04;9.68;;;6.45;;
57085;SDS011;42964;42.910;23.792;2023-07-29T00:06:03;10.88;;;6.72;;
57085;SDS011;42964;42.910;23.792;2023-07-29T00:16:01;7.43;;;6.50;;
57085;SDS011;42964;42.910;23.792;2023-07-29T00:21:00;9.63;;;6.60;;
57085;SDS011;42964;42.910;23.792;2023-07-29T00:30:58;7.63;;;6.03;;
57085;SDS011;42964;42.910;23.792;2023-07-29T00:40:56;8.83;;;6.73;;
57085;SDS011;42964;42.910;23.792;2023-07-29T00:45:56;10.63;;;6.78;;
57085;SDS011;42964;42.910;23.792;2023-07-29T00:50:56;8.55;;;6.53;;
57085;SDS011;42964;42.910;23.792;2023-07-29T00:55:55;8.45;;;7.28;;
57085;SDS011;42964;42.910;23.792;2023-07-29T01:00:54;8.63;;;7.57;;
57085;SDS011;42964;42.910;23.792;2023-07-29T01:05:58;9.02;;;7.45;;
57085;SDS011;42964;42.910;23.792;2023-07-29T01:11:09;8.65;;;7.13;;
57085;SDS011;42964;42.910;23.792;2023-07-29T01:16:34;10.13;;;8.10;;
57085;SDS011;42964;42.910;23.792;2023-07-29T01:21:45;9.93;;;7.90;;
57085;SDS011;42964;42.910;23.792;2023-07-29T01:26:44;10.30;;;8.45;;
57085;SDS011;42964;42.910;23.792;2023-07-29T01:41:44;9.85;;;7.82;;
57085;SDS011;42964;42.910;23.792;2023-07-29T01:46:44;9.63;;;7.45;;
57085;SDS011;42964;42.910;23.792;2023-07-29T01:51:43;10.55;;;7.55;;
57085;SDS011;42964;42.910;23.792;2023-07-29T01:56:42;9.95;;;6.93;;
57085;SDS011;42964;42.910;23.792;2023-07-29T02:06:39;9.10;;;7.50;;
57085;SDS011;42964;42.910;23.792;2023-07-29T02:11:39;9.00;;;6.80;;
57085;SDS011;42964;42.910;23.792;2023-07-29T02:21:37;9.38;;;7.45;;
57085;SDS011;42964;42.910;23.792;2023-07-29T02:31:35;7.85;;;6.95;;
57085;SDS011;42964;42.910;23.792;2023-07-29T02:36:36;9.15;;;7.07;;
57085;SDS011;42964;42.910;23.792;2023-07-29T02:46:33;12.88;;;7.40;;
57085;SDS011;42964;42.910;23.792;2023-07-29T02:56:31;11.00;;;7.97;;
57085;SDS011;42964;42.910;23.792;2023-07-29T03:01:30;9.27;;;7.75;;
57085;SDS011;42964;42.910;23.792;2023-07-29T03:06:29;9.95;;;7.65;;
57085;SDS011;42964;42.910;23.792;2023-07-29T03:16:27;10.27;;;7.82;;
57085;SDS011;42964;42.910;23.792;2023-07-29T03:26:25;14.35;;;7.75;;
57085;SDS011;42964;42.910;23.792;2023-07-29T03:36:22;10.80;;;7.47;;
57085;SDS011;42964;42.910;23.792;2023-07-29T03:41:24;14.18;;;7.53;;
57085;SDS011;42964;42.910;23.792;2023-07-29T03:51:21;12.52;;;8.00;;
57085;SDS011;42964;42.910;23.792;2023-07-29T03:56:21;10.43;;;7.68;;
57085;SDS011;42964;42.910;23.792;2023-07-29T04:06:19;9.73;;;7.23;;
57085;SDS011;42964;42.910;23.792;2023-07-29T04:16:16;15.82;;;13.93;;
57085;SDS011;42964;42.910;23.792;2023-07-29T04:26:14;32.80;;;27.23;;
57085;SDS011;42964;42.910;23.792;2023-07-29T04:36:12;14.55;;;11.90;;
57085;SDS011;42964;42.910;23.792;2023-07-29T04:46:10;11.27;;;8.93;;
57085;SDS011;42964;42.910;23.792;2023-07-29T04:51:09;13.55;;;10.30;;
57085;SDS011;42964;42.910;23.792;2023-07-29T05:01:06;16.70;;;11.53;;
57085;SDS011;42964;42.910;23.792;2023-07-29T05:06:05;20.65;;;14.35;;
57085;SDS011;42964;42.910;23.792;2023-07-29T05:11:04;17.02;;;13.98;;
57085;SDS011;42964;42.910;23.792;2023-07-29T05:21:02;16.67;;;12.00;;
57085;SDS011;42964;42.910;23.792;2023-07-29T05:26:01;15.05;;;12.30;;
57085;SDS011;42964;42.910;23.792;2023-07-29T05:31:00;20.48;;;11.80;;
57085;SDS011;42964;42.910;23.792;2023-07-29T05:36:00;12.40;;;9.35;;
57085;SDS011;42964;42.910;23.792;2023-07-29T05:40:59;10.00;;;7.38;;
57085;SDS011;42964;42.910;23.792;2023-07-29T05:45:59;10.48;;;7.93;;
57085;SDS011;42964;42.910;23.792;2023-07-29T05:50:58;10.23;;;7.40;;
57085;SDS011;42964;42.910;23.792;2023-07-29T05:55:57;11.15;;;6.93;;
57085;SDS011;42964;42.910;23.792;2023-07-29T06:00:56;9.20;;;7.55;;
57085;SDS011;42964;42.910;23.792;2023-07-29T06:05:55;7.93;;;6.40;;
57085;SDS011;42964;42.910;23.792;2023-07-29T06:10:54;8.07;;;6.35;;
57085;SDS011;42964;42.910;23.792;2023-07-29T06:15:53;8.15;;;6.00;;
57085;SDS011;42964;42.910;23.792;2023-07-29T06:20:52;7.55;;;6.32;;
57085;SDS011;42964;42.910;23.792;2023-07-29T06:25:51;9.23;;;5.68;;
57085;SDS011;42964;42.910;23.792;2023-07-29T06:30:50;7.78;;;6.00;;
57085;SDS011;42964;42.910;23.792;2023-07-29T06:35:49;7.32;;;5.97;;
57085;SDS011;42964;42.910;23.792;2023-07-29T06:40:48;7.40;;;5.30;;
57085;SDS011;42964;42.910;23.792;2023-07-29T06:45:47;7.18;;;5.35;;
57085;SDS011;42964;42.910;23.792;2023-07-29T06:50:46;7.78;;;5.30;;
57085;SDS011;42964;42.910;23.792;2023-07-29T06:55:45;6.13;;;4.75;;
57085;SDS011;42964;42.910;23.792;2023-07-29T07:00:44;10.15;;;4.88;;
57085;SDS011;42964;42.910;23.792;2023-07-29T07:05:43;6.38;;;4.57;;
57085;SDS011;42964;42.910;23.792;2023-07-29T07:10:42;6.13;;;3.90;;
57085;SDS011;42964;42.910;23.792;2023-07-29T07:15:41;5.55;;;4.30;;
57085;SDS011;42964;42.910;23.792;2023-07-29T07:20:40;8.85;;;4.40;;
57085;SDS011;42964;42.910;23.792;2023-07-29T07:25:39;4.93;;;4.03;;
57085;SDS011;42964;42.910;23.792;2023-07-29T07:30:41;8.57;;;4.30;;
57085;SDS011;42964;42.910;23.792;2023-07-29T07:35:40;5.10;;;3.95;;
57085;SDS011;42964;42.910;23.792;2023-07-29T07:40:40;4.88;;;4.32;;
57085;SDS011;42964;42.910;23.792;2023-07-29T07:45:39;8.68;;;3.95;;
57085;SDS011;42964;42.910;23.792;2023-07-29T07:50:39;6.63;;;3.95;;
57085;SDS011;42964;42.910;23.792;2023-07-29T07:55:38;9.57;;;4.30;;
57085;SDS011;42964;42.910;23.792;2023-07-29T08:00:37;7.18;;;4.15;;
57085;SDS011;42964;42.910;23.792;2023-07-29T08:05:36;6.03;;;3.88;;
57085;SDS011;42964;42.910;23.792;2023-07-29T08:10:35;5.93;;;3.47;;
57085;SDS011;42964;42.910;23.792;2023-07-29T08:15:34;7.40;;;3.97;;
57085;SDS011;42964;42.910;23.792;2023-07-29T08:20:33;7.25;;;4.50;;
57085;SDS011;42964;42.910;23.792;2023-07-29T08:25:32;3.97;;;3.47;;
57085;SDS011;42964;42.910;23.792;2023-07-29T08:30:31;5.60;;;3.10;;
57085;SDS011;42964;42.910;23.792;2023-07-29T08:35:30;4.78;;;3.50;;
57085;SDS011;42964;42.910;23.792;2023-07-29T08:40:29;5.80;;;3.20;;
57085;SDS011;42964;42.910;23.792;2023-07-29T08:45:29;4.43;;;3.85;;
57085;SDS011;42964;42.910;23.792;2023-07-29T08:50:32;4.93;;;3.80;;
57085;SDS011;42964;42.910;23.792;2023-07-29T08:55:34;5.85;;;3.40;;
57085;SDS011;42964;42.910;23.792;2023-07-29T09:00:33;4.55;;;3.25;;
57085;SDS011;42964;42.910;23.792;2023-07-29T09:05:33;3.40;;;3.10;;
57085;SDS011;42964;42.910;23.792;2023-07-29T09:10:36;4.28;;;3.00;;
57085;SDS011;42964;42.910;23.792;2023-07-29T09:15:38;6.40;;;3.65;;
57085;SDS011;42964;42.910;23.792;2023-07-29T09:20:37;4.20;;;3.45;;
57085;SDS011;42964;42.910;23.792;2023-07-29T09:25:37;3.60;;;2.80;;
57085;SDS011;42964;42.910;23.792;2023-07-29T09:30:38;4.07;;;2.30;;
57085;SDS011;42964;42.910;23.792;2023-07-29T09:35:37;3.13;;;2.80;;
57085;SDS011;42964;42.910;23.792;2023-07-29T09:40:37;3.25;;;1.80;;
57085;SDS011;42964;42.910;23.792;2023-07-29T09:45:37;3.17;;;2.22;;
57085;SDS011;42964;42.910;23.792;2023-07-29T09:50:36;3.42;;;2.40;;
57085;SDS011;42964;42.910;23.792;2023-07-29T09:55:35;2.50;;;2.20;;
57085;SDS011;42964;42.910;23.792;2023-07-29T10:00:34;3.80;;;2.70;;
57085;SDS011;42964;42.910;23.792;2023-07-29T10:05:34;3.20;;;2.40;;
57085;SDS011;42964;42.910;23.792;2023-07-29T10:10:34;2.40;;;2.20;;
57085;SDS011;42964;42.910;23.792;2023-07-29T10:15:33;2.67;;;2.20;;
57085;SDS011;42964;42.910;23.792;2023-07-29T10:20:32;4.10;;;2.22;;
57085;SDS011;42964;42.910;23.792;2023-07-29T10:25:38;1.70;;;1.60;;
57085;SDS011;42964;42.910;23.792;2023-07-29T10:30:41;4.18;;;2.20;;
57085;SDS011;42964;42.910;23.792;2023-07-29T10:35:40;3.05;;;2.70;;
57085;SDS011;42964;42.910;23.792;2023-07-29T10:40:47;2.40;;;2.20;;
57085;SDS011;42964;42.910;23.792;2023-07-29T10:45:49;3.20;;;2.25;;
57085;SDS011;42964;42.910;23.792;2023-07-29T10:50:48;3.05;;;2.75;;
57085;SDS011;42964;42.910;23.792;2023-07-29T10:55:47;2.20;;;2.00;;
57085;SDS011;42964;42.910;23.792;2023-07-29T11:00:50;2.65;;;2.40;;
57085;SDS011;42964;42.910;23.792;2023-07-29T11:05:50;2.22;;;1.92;;
57085;SDS011;42964;42.910;23.792;2023-07-29T11:11:06;3.75;;;1.85;;
57085;SDS011;42964;42.910;23.792;2023-07-29T11:16:06;2.83;;;2.10;;
57085;SDS011;42964;42.910;23.792;2023-07-29T11:21:05;2.08;;;1.70;;
57085;SDS011;42964;42.910;23.792;2023-07-29T11:26:05;3.90;;;1.90;;
57085;SDS011;42964;42.910;23.792;2023-07-29T11:31:04;2.40;;;2.10;;
57085;SDS011;42964;42.910;23.792;2023-07-29T11:36:03;3.30;;;1.85;;
57085;SDS011;42964;42.910;23.792;2023-07-29T11:41:02;2.40;;;2.00;;
57085;SDS011;42964;42.910;23.792;2023-07-29T11:46:01;1.92;;;1.80;;
57085;SDS011;42964;42.910;23.792;2023-07-29T11:51:02;3.08;;;2.03;;
57085;SDS011;42964;42.910;23.792;2023-07-29T11:56:02;2.70;;;2.00;;
57085;SDS011;42964;42.910;23.792;2023-07-29T12:01:03;2.63;;;1.95;;
57085;SDS011;42964;42.910;23.792;2023-07-29T12:06:02;2.45;;;1.55;;
57085;SDS011;42964;42.910;23.792;2023-07-29T12:11:01;2.47;;;2.00;;
57085;SDS011;42964;42.910;23.792;2023-07-29T12:16:03;2.10;;;1.90;;
57085;SDS011;42964;42.910;23.792;2023-07-29T12:21:02;2.67;;;1.90;;
57085;SDS011;42964;42.910;23.792;2023-07-29T12:26:02;2.08;;;1.88;;
57085;SDS011;42964;42.910;23.792;2023-07-29T12:31:01;2.35;;;2.05;;
57085;SDS011;42964;42.910;23.792;2023-07-29T12:36:00;2.13;;;1.90;;
57085;SDS011;42964;42.910;23.792;2023-07-29T12:40:59;1.73;;;1.55;;
57085;SDS011;42964;42.910;23.792;2023-07-29T12:45:58;1.92;;;1.80;;
57085;SDS011;42964;42.910;23.792;2023-07-29T12:50:57;2.78;;;1.95;;
57085;SDS011;42964;42.910;23.792;2023-07-29T12:55:56;2.83;;;1.85;;
57085;SDS011;42964;42.910;23.792;2023-07-29T13:00:55;4.18;;;2.10;;
57085;SDS011;42964;42.910;23.792;2023-07-29T13:05:54;2.63;;;2.20;;
57085;SDS011;42964;42.910;23.792;2023-07-29T13:10:52;3.13;;;2.20;;
57085;SDS011;42964;42.910;23.792;2023-07-29T13:15:51;2.70;;;1.80;;
57085;SDS011;42964;42.910;23.792;2023-07-29T13:20:51;3.70;;;2.40;;
57085;SDS011;42964;42.910;23.792;2023-07-29T13:25:50;2.28;;;2.08;;
57085;SDS011;42964;42.910;23.792;2023-07-29T13:30:49;4.40;;;1.92;;
57085;SDS011;42964;42.910;23.792;2023-07-29T13:35:48;2.63;;;2.22;;
57085;SDS011;42964;42.910;23.792;2023-07-29T13:40:47;3.78;;;1.90;;
57085;SDS011;42964;42.910;23.792;2023-07-29T13:45:49;2.17;;;1.98;;
57085;SDS011;42964;42.910;23.792;2023-07-29T13:50:48;1.73;;;1.63;;
57085;SDS011;42964;42.910;23.792;2023-07-29T13:55:47;5.10;;;1.95;;
57085;SDS011;42964;42.910;23.792;2023-07-29T14:00:46;3.30;;;1.60;;
57085;SDS011;42964;42.910;23.792;2023-07-29T14:05:45;10.30;;;2.30;;
57085;SDS011;42964;42.910;23.792;2023-07-29T14:10:44;2.10;;;2.00;;
57085;SDS011;42964;42.910;23.792;2023-07-29T14:15:43;2.30;;;2.10;;
57085;SDS011;42964;42.910;23.792;2023-07-29T14:20:42;3.65;;;2.05;;
57085;SDS011;42964;42.910;23.792;2023-07-29T14:25:41;3.75;;;1.90;;
57085;SDS011;42964;42.910;23.792;2023-07-29T14:30:40;4.65;;;2.78;;
57085;SDS011;42964;42.910;23.792;2023-07-29T14:35:39;2.25;;;1.80;;
57085;SDS011;42964;42.910;23.792;2023-07-29T14:40:38;2.45;;;1.95;;
57085;SDS011;42964;42.910;23.792;2023-07-29T14:45:37;2.35;;;1.90;;
57085;SDS011;42964;42.910;23.792;2023-07-29T14:50:36;4.70;;;2.10;;
57085;SDS011;42964;42.910;23.792;2023-07-29T14:55:36;2.83;;;1.80;;
57085;SDS011;42964;42.910;23.792;2023-07-29T15:00:35;2.95;;;1.90;;
57085;SDS011;42964;42.910;23.792;2023-07-29T15:05:34;2.22;;;1.52;;
57085;SDS011;42964;42.910;23.792;2023-07-29T15:10:33;1.85;;;1.73;;
57085;SDS011;42964;42.910;23.792;2023-07-29T15:15:32;3.78;;;1.58;;
57085;SDS011;42964;42.910;23.792;2023-07-29T15:20:31;2.28;;;1.60;;
57085;SDS011;42964;42.910;23.792;2023-07-29T15:25:30;2.20;;;1.55;;
57085;SDS011;42964;42.910;23.792;2023-07-29T15:30:29;1.60;;;1.48;;
57085;SDS011;42964;42.910;23.792;2023-07-29T15:35:28;1.92;;;1.50;;
57085;SDS011;42964;42.910;23.792;2023-07-29T15:40:27;2.28;;;1.70;;
57085;SDS011;42964;42.910;23.792;2023-07-29T15:45:26;2.17;;;1.98;;
57085;SDS011;42964;42.910;23.792;2023-07-29T15:50:25;3.50;;;1.98;;
57085;SDS011;42964;42.910;23.792;2023-07-29T15:55:24;6.50;;;2.33;;
57085;SDS011;42964;42.910;23.792;2023-07-29T16:00:23;4.43;;;2.08;;
57085;SDS011;42964;42.910;23.792;2023-07-29T16:05:22;3.30;;;2.13;;
57085;SDS011;42964;42.910;23.792;2023-07-29T16:10:21;4.15;;;2.25;;
57085;SDS011;42964;42.910;23.792;2023-07-29T16:15:20;2.90;;;2.38;;
57085;SDS011;42964;42.910;23.792;2023-07-29T16:20:19;3.80;;;2.17;;
57085;SDS011;42964;42.910;23.792;2023-07-29T16:25:18;4.25;;;2.10;;
57085;SDS011;42964;42.910;23.792;2023-07-29T16:30:17;4.63;;;2.30;;
57085;SDS011;42964;42.910;23.792;2023-07-29T16:35:17;2.95;;;2.28;;
57085;SDS011;42964;42.910;23.792;2023-07-29T16:40:16;2.55;;;2.13;;
57085;SDS011;42964;42.910;23.792;2023-07-29T16:45:15;3.67;;;2.17;;
57085;SDS011;42964;42.910;23.792;2023-07-29T16:50:14;4.90;;;2.58;;
57085;SDS011;42964;42.910;23.792;2023-07-29T16:55:13;4.70;;;2.75;;
57085;SDS011;42964;42.910;23.792;2023-07-29T17:00:12;3.85;;;2.45;;
57085;SDS011;42964;42.910;23.792;2023-07-29T17:05:11;2.30;;;2.10;;
57085;SDS011;42964;42.910;23.792;2023-07-29T17:10:10;2.83;;;1.80;;
57085;SDS011;42964;42.910;23.792;2023-07-29T17:15:09;2.83;;;2.03;;
57085;SDS011;42964;42.910;23.792;2023-07-29T17:20:09;3.45;;;2.25;;
57085;SDS011;42964;42.910;23.792;2023-07-29T17:25:08;3.40;;;2.45;;
57085;SDS011;42964;42.910;23.792;2023-07-29T17:30:07;10.43;;;4.07;;
57085;SDS011;42964;42.910;23.792;2023-07-29T17:35:07;10.25;;;5.35;;
57085;SDS011;42964;42.910;23.792;2023-07-29T17:40:06;8.80;;;5.00;;
57085;SDS011;42964;42.910;23.792;2023-07-29T17:45:06;9.55;;;4.88;;
57085;SDS011;42964;42.910;23.792;2023-07-29T17:50:05;6.35;;;3.67;;
57085;SDS011;42964;42.910;23.792;2023-07-29T17:55:04;5.10;;;3.50;;
57085;SDS011;42964;42.910;23.792;2023-07-29T18:00:04;4.43;;;3.00;;
57085;SDS011;42964;42.910;23.792;2023-07-29T18:05:04;12.63;;;6.90;;
57085;SDS011;42964;42.910;23.792;2023-07-29T18:10:04;6.47;;;3.40;;
57085;SDS011;42964;42.910;23.792;2023-07-29T18:15:04;9.30;;;3.92;;
57085;SDS011;42964;42.910;23.792;2023-07-29T18:20:04;5.47;;;3.53;;
57085;SDS011;42964;42.910;23.792;2023-07-29T18:25:04;7.72;;;4.00;;
57085;SDS011;42964;42.910;23.792;2023-07-29T18:30:04;6.25;;;3.13;;
57085;SDS011;42964;42.910;23.792;2023-07-29T18:35:04;4.80;;;3.10;;
57085;SDS011;42964;42.910;23.792;2023-07-29T18:40:03;5.45;;;3.30;;
57085;SDS011;42964;42.910;23.792;2023-07-29T18:45:03;7.07;;;3.53;;
57085;SDS011;42964;42.910;23.792;2023-07-29T18:50:02;3.65;;;2.72;;
57085;SDS011;42964;42.910;23.792;2023-07-29T18:55:02;5.55;;;2.78;;
57085;SDS011;42964;42.910;23.792;2023-07-29T19:00:01;5.03;;;3.10;;
57085;SDS011;42964;42.910;23.792;2023-07-29T19:05:02;5.03;;;3.50;;
57085;SDS011;42964;42.910;23.792;2023-07-29T19:10:03;5.55;;;3.10;;
57085;SDS011;42964;42.910;23.792;2023-07-29T19:15:02;6.00;;;3.13;;
57085;SDS011;42964;42.910;23.792;2023-07-29T19:20:02;4.47;;;3.25;;
57085;SDS011;42964;42.910;23.792;2023-07-29T19:25:02;5.03;;;3.10;;
57085;SDS011;42964;42.910;23.792;2023-07-29T19:30:02;4.50;;;3.40;;
57085;SDS011;42964;42.910;23.792;2023-07-29T19:35:01;4.32;;;3.20;;
57085;SDS011;42964;42.910;23.792;2023-07-29T19:40:00;5.20;;;3.35;;
57085;SDS011;42964;42.910;23.792;2023-07-29T19:44:59;8.45;;;3.92;;
57085;SDS011;42964;42.910;23.792;2023-07-29T19:49:58;7.53;;;3.78;;
57085;SDS011;42964;42.910;23.792;2023-07-29T19:54:57;8.85;;;4.22;;
57085;SDS011;42964;42.910;23.792;2023-07-29T19:59:55;15.18;;;8.10;;
57085;SDS011;42964;42.910;23.792;2023-07-29T20:04:54;12.38;;;6.85;;
57085;SDS011;42964;42.910;23.792;2023-07-29T20:09:53;10.32;;;6.10;;
57085;SDS011;42964;42.910;23.792;2023-07-29T20:14:52;6.72;;;4.63;;
57085;SDS011;42964;42.910;23.792;2023-07-29T20:19:53;7.57;;;4.28;;
57085;SDS011;42964;42.910;23.792;2023-07-29T20:24:52;7.03;;;4.00;;
57085;SDS011;42964;42.910;23.792;2023-07-29T20:29:51;8.10;;;4.38;;
57085;SDS011;42964;42.910;23.792;2023-07-29T20:34:53;6.43;;;4.18;;
57085;SDS011;42964;42.910;23.792;2023-07-29T20:39:52;8.82;;;4.55;;
57085;SDS011;42964;42.910;23.792;2023-07-29T20:44:51;6.95;;;3.55;;
57085;SDS011;42964;42.910;23.792;2023-07-29T20:49:50;5.53;;;3.55;;
57085;SDS011;42964;42.910;23.792;2023-07-29T20:54:50;5.15;;;3.30;;
57085;SDS011;42964;42.910;23.792;2023-07-29T20:59:49;5.65;;;4.13;;
57085;SDS011;42964;42.910;23.792;2023-07-29T21:04:48;4.75;;;3.47;;
57085;SDS011;42964;42.910;23.792;2023-07-29T21:09:47;6.78;;;4.30;;
57085;SDS011;42964;42.910;23.792;2023-07-29T21:14:46;6.82;;;4.35;;
57085;SDS011;42964;42.910;23.792;2023-07-29T21:19:45;8.25;;;4.60;;
57085;SDS011;42964;42.910;23.792;2023-07-29T21:24:43;6.18;;;4.07;;
57085;SDS011;42964;42.910;23.792;2023-07-29T21:29:43;8.63;;;4.60;;
57085;SDS011;42964;42.910;23.792;2023-07-29T21:34:42;6.65;;;4.20;;
57085;SDS011;42964;42.910;23.792;2023-07-29T21:39:41;9.82;;;4.93;;
57085;SDS011;42964;42.910;23.792;2023-07-29T21:44:40;6.93;;;3.95;;
57085;SDS011;42964;42.910;23.792;2023-07-29T21:49:39;7.65;;;4.32;;
57085;SDS011;42964;42.910;23.792;2023-07-29T21:54:38;4.88;;;4.00;;
57085;SDS011;42964;42.910;23.792;2023-07-29T21:59:37;5.18;;;3.88;;
57085;SDS011;42964;42.910;23.792;2023-07-29T22:04:37;6.72;;;4.05;;
57085;SDS011;42964;42.910;23.792;2023-07-29T22:09:36;5.65;;;4.28;;
57085;SDS011;42964;42.910;23.792;2023-07-29T22:14:34;7.32;;;4.72;;
57085;SDS011;42964;42.910;23.792;2023-07-29T22:19:33;4.85;;;3.97;;
57085;SDS011;42964;42.910;23.792;2023-07-29T22:24:32;6.82;;;4.43;;
57085;SDS011;42964;42.910;23.792;2023-07-29T22:29:31;9.05;;;4.50;;
57085;SDS011;42964;42.910;23.792;2023-07-29T22:34:30;5.85;;;3.90;;
57085;SDS011;42964;42.910;23.792;2023-07-29T22:39:29;6.50;;;4.40;;
57085;SDS011;42964;42.910;23.792;2023-07-29T22:44:28;7.15;;;4.32;;
57085;SDS011;42964;42.910;23.792;2023-07-29T22:49:27;6.43;;;4.20;;
57085;SDS011;42964;42.910;23.792;2023-07-29T22:54:28;7.80;;;4.68;;
57085;SDS011;42964;42.910;23.792;2023-07-29T22:59:27;5.80;;;4.38;;
57085;SDS011;42964;42.910;23.792;2023-07-29T23:04:25;5.90;;;4.55;;
57085;SDS011;42964;42.910;23.792;2023-07-29T23:09:24;9.27;;;4.32;;
57085;SDS011;42964;42.910;23.792;2023-07-29T23:14:24;5.63;;;4.60;;
57085;SDS011;42964;42.910;23.792;2023-07-29T23:19:23;6.10;;;4.80;;
57085;SDS011;42964;42.910;23.792;2023-07-29T23:24:22;8.23;;;5.43;;
57085;SDS011;42964;42.910;23.792;2023-07-29T23:29:21;7.93;;;5.20;;
57085;SDS011;42964;42.910;23.792;2023-07-29T23:34:20;7.88;;;5.18;;
57085;SDS011;42964;42.910;23.792;2023-07-29T23:39:19;7.65;;;5.20;;
57085;SDS011;42964;42.910;23.792;2023-07-29T23:44:18;7.53;;;5.30;;
57085;SDS011;42964;42.910;23.792;2023-07-29T23:49:17;8.88;;;5.53;;
57085;SDS011;42964;42.910;23.792;2023-07-29T23:54:16;10.40;;;6.75;;
57085;SDS011;42964;42.910;23.792;2023-07-29T23:59:15;7.57;;;5.00;;
